createdAt,value
2022-09-03T00:00:59.798Z,43.60
2022-09-03T00:03:40.090Z,40.35
2022-09-03T00:06:20.682Z,35.40
2022-09-03T00:09:23.410Z,39.23
2022-09-03T00:12:12.242Z,31.25
2022-09-03T00:14:50.151Z,37.90
2022-09-03T00:17:25.110Z,37.22
2022-09-03T00:20:09.851Z,30.23
2022-09-03T00:22:45.688Z,40.70
2022-09-03T00:25:22.016Z,36.80
2022-09-03T00:27:59.787Z,44.17
2022-09-03T00:30:31.477Z,36.65
2022-09-03T00:33:13.114Z,37.55
2022-09-03T00:35:58.639Z,33.10
2022-09-03T00:38:30.008Z,34.83
2022-09-03T00:44:00.985Z,33.47
2022-09-03T00:46:54.158Z,32.55
2022-09-03T00:50:06.257Z,37.67
2022-09-03T00:52:48.199Z,29.00
2022-09-03T00:55:59.421Z,37.08
2022-09-03T00:59:08.160Z,37.33
2022-09-03T01:01:41.667Z,33.53
2022-09-03T01:04:28.846Z,36.83
2022-09-03T01:07:21.204Z,31.13
2022-09-03T01:10:29.623Z,31.95
2022-09-03T01:13:17.575Z,38.53
2022-09-03T01:16:29.188Z,33.47
2022-09-03T01:19:33.580Z,30.83
2022-09-03T01:22:29.472Z,33.00
2022-09-03T01:25:20.692Z,33.45
2022-09-03T01:28:25.357Z,25.65
2022-09-03T01:31:26.456Z,30.13
2022-09-03T01:34:22.526Z,25.23
2022-09-03T01:37:18.264Z,28.52
2022-09-03T01:43:06.516Z,23.77
2022-09-03T01:46:02.423Z,25.92
2022-09-03T01:48:48.684Z,26.27
2022-09-03T01:51:25.834Z,23.55
2022-09-03T01:57:35.638Z,30.35
2022-09-03T02:02:45.693Z,25.58
2022-09-03T02:05:28.479Z,23.92
2022-09-03T02:08:03.880Z,29.73
2022-09-03T02:10:45.438Z,33.75
2022-09-03T02:13:34.335Z,32.85
2022-09-03T02:16:13.454Z,33.47
2022-09-03T02:18:48.827Z,29.38
2022-09-03T02:21:22.704Z,25.17
2022-09-03T02:23:53.465Z,25.25
2022-09-03T02:26:26.991Z,29.67
2022-09-03T02:28:58.441Z,30.65
2022-09-03T02:31:30.339Z,26.55
2022-09-03T02:34:01.247Z,28.95
2022-09-03T02:36:36.738Z,24.20
2022-09-03T02:39:07.580Z,24.20
2022-09-03T02:41:38.195Z,23.70
2022-09-03T02:44:30.489Z,28.05
2022-09-03T02:47:02.268Z,23.95
2022-09-03T02:49:33.420Z,25.60
2022-09-03T02:52:12.324Z,32.55
2022-09-03T02:54:43.846Z,27.08
2022-09-03T02:57:17.597Z,27.55
2022-09-03T02:59:57.631Z,27.58
2022-09-03T03:02:27.895Z,26.08
2022-09-03T03:04:58.473Z,24.20
2022-09-03T03:07:30.517Z,25.75
2022-09-03T03:10:02.095Z,26.35
2022-09-03T03:12:32.999Z,26.48
2022-09-03T08:56:44.709Z,17.08
2022-09-03T08:59:15.434Z,17.25
2022-09-03T09:02:05.955Z,16.85
2022-09-03T09:05:06.075Z,14.83
2022-09-03T09:07:53.514Z,13.48
2022-09-03T09:11:17.045Z,14.20
2022-09-03T09:14:00.796Z,14.60
2022-09-03T09:16:38.201Z,16.52
2022-09-03T09:20:10.856Z,13.38
2022-09-03T09:22:52.015Z,12.55
2022-09-03T09:25:26.023Z,11.65
2022-09-03T09:28:15.771Z,10.65
2022-09-03T09:30:50.180Z,12.50
2022-09-03T09:33:22.955Z,13.27
2022-09-03T09:35:53.722Z,11.35
2022-09-03T09:38:35.889Z,12.52
2022-09-03T09:41:24.199Z,11.85
2022-09-03T09:44:05.600Z,11.50
2022-09-03T09:46:42.220Z,12.00
2022-09-03T09:49:34.488Z,11.52
2022-09-03T09:52:14.722Z,11.20
2022-09-03T09:54:48.541Z,11.32
2022-09-03T09:57:25.369Z,10.85
2022-09-03T10:00:16.167Z,10.05
2022-09-03T10:02:57.585Z,9.57
2022-09-03T10:05:30.948Z,11.13
2022-09-03T10:08:07.970Z,9.63
2022-09-03T10:10:47.566Z,9.60
2022-09-03T10:13:25.223Z,10.73
2022-09-03T10:16:06.617Z,10.13
2022-09-03T10:21:19.161Z,9.80
2022-09-03T10:24:20.239Z,9.10
2022-09-03T10:26:50.943Z,9.13
2022-09-03T10:29:32.852Z,8.90
2022-09-03T10:32:37.853Z,9.52
2022-09-03T10:35:30.960Z,9.38
2022-09-03T10:38:36.843Z,9.73
2022-09-03T10:41:31.536Z,8.15
2022-09-03T10:44:13.853Z,7.72
2022-09-03T10:47:15.700Z,9.23
2022-09-03T10:50:12.904Z,7.82
2022-09-03T10:53:10.355Z,9.05
2022-09-03T10:56:12.652Z,7.70
2022-09-03T10:59:15.780Z,8.05
2022-09-03T11:02:05.127Z,7.55
2022-09-03T11:05:02.854Z,6.80
2022-09-03T11:07:51.651Z,6.40
2022-09-03T11:10:52.873Z,10.73
2022-09-03T11:13:49.399Z,5.80
2022-09-03T11:16:34.321Z,5.78
2022-09-03T11:19:10.822Z,5.75
2022-09-03T11:21:44.644Z,5.97
2022-09-03T11:24:25.008Z,6.03
2022-09-03T11:27:05.154Z,6.55
2022-09-03T11:29:55.772Z,6.13
2022-09-03T11:32:34.626Z,5.57
2022-09-03T11:35:16.443Z,8.90
2022-09-03T11:38:23.815Z,6.05
2022-09-03T11:41:18.304Z,6.63
2022-09-03T11:43:49.629Z,7.07
2022-09-03T11:46:26.472Z,8.55
2022-09-03T11:49:14.755Z,7.18
2022-09-03T11:51:46.722Z,8.63
2022-09-03T11:54:26.500Z,11.90
2022-09-03T11:57:15.914Z,14.77
2022-09-03T11:59:47.710Z,12.38
2022-09-03T12:02:43.406Z,9.27
2022-09-03T12:05:38.404Z,10.07
2022-09-03T12:08:23.932Z,9.38
2022-09-03T12:11:12.509Z,11.38
2022-09-03T12:14:17.824Z,13.65
2022-09-03T12:17:05.684Z,11.20
2022-09-03T12:19:42.849Z,12.48
2022-09-03T12:22:18.457Z,12.20
2022-09-03T12:24:49.359Z,13.07
2022-09-03T12:27:27.379Z,12.93
2022-09-03T12:30:02.724Z,14.23
2022-09-03T12:32:39.764Z,11.60
2022-09-03T12:38:13.813Z,11.20
2022-09-03T12:43:39.149Z,12.93
2022-09-03T12:46:18.226Z,14.07
2022-09-03T12:51:53.622Z,12.23
2022-09-03T12:54:27.639Z,11.63
2022-09-03T12:57:02.434Z,12.32
2022-09-03T12:59:38.360Z,11.50
2022-09-03T13:02:23.520Z,13.15
2022-09-03T13:04:55.439Z,11.85
2022-09-03T13:07:50.356Z,12.50
2022-09-03T13:10:33.799Z,13.85
2022-09-03T13:13:10.474Z,12.48
2022-09-03T13:15:41.293Z,11.32
2022-09-03T13:18:27.064Z,10.70
2022-09-03T13:21:14.937Z,12.38
2022-09-03T13:24:09.057Z,14.23
2022-09-03T13:26:47.970Z,11.45
2022-09-03T13:29:52.739Z,14.25
2022-09-03T13:32:37.005Z,12.48
2022-09-03T13:35:35.192Z,15.90
2022-09-03T13:38:41.199Z,12.63
2022-09-03T13:41:23.935Z,15.60
2022-09-03T13:44:12.137Z,13.70
2022-09-03T13:46:52.103Z,14.73
2022-09-03T13:50:13.132Z,14.68
2022-09-03T13:52:46.813Z,12.10
2022-09-03T13:55:36.115Z,12.85
2022-09-03T13:58:22.325Z,13.70
2022-09-03T14:01:05.716Z,14.85
2022-09-03T14:03:51.507Z,13.10
2022-09-03T14:06:50.408Z,11.98
2022-09-03T14:09:27.100Z,13.80
2022-09-03T14:12:10.835Z,13.45
2022-09-03T14:15:08.487Z,13.63
2022-09-03T14:18:00.821Z,12.75
2022-09-03T14:20:57.673Z,13.00
2022-09-03T14:24:05.742Z,10.93
2022-09-03T14:26:40.861Z,12.00
2022-09-03T14:29:20.079Z,14.38
2022-09-03T14:32:08.802Z,8.18
2022-09-03T14:34:51.481Z,7.60
2022-09-03T14:37:46.168Z,7.13
2022-09-03T14:40:16.940Z,7.28
2022-09-03T14:43:08.388Z,12.00
2022-09-03T14:45:59.284Z,9.38
2022-09-03T14:48:40.951Z,10.85
2022-09-03T14:52:01.428Z,12.30
2022-09-03T14:55:09.742Z,10.60
2022-09-03T14:57:52.667Z,10.15
2022-09-03T15:01:01.424Z,8.48
2022-09-03T15:03:50.940Z,10.93
2022-09-03T15:06:58.657Z,11.55
2022-09-03T15:09:34.212Z,7.85
2022-09-03T15:12:13.340Z,7.40
2022-09-03T15:15:22.724Z,7.57
2022-09-03T15:18:24.192Z,8.02
2022-09-03T15:21:22.727Z,8.63
2022-09-03T15:24:16.863Z,12.77
2022-09-03T15:27:10.758Z,10.90
2022-09-03T15:30:04.546Z,8.27
2022-09-03T15:32:59.632Z,8.60
2022-09-03T15:35:54.853Z,10.32
2022-09-03T15:38:31.492Z,10.27
2022-09-03T15:41:11.041Z,9.43
2022-09-03T15:43:43.398Z,10.98
2022-09-03T15:46:32.947Z,8.18
2022-09-03T15:49:21.047Z,6.78
2022-09-03T15:52:10.114Z,9.77
2022-09-03T15:54:59.814Z,7.45
2022-09-03T15:57:41.905Z,9.73
2022-09-03T16:00:22.558Z,6.88
2022-09-03T16:03:11.692Z,7.90
2022-09-03T16:05:49.657Z,7.03
2022-09-03T16:08:45.167Z,8.13
2022-09-03T16:11:53.849Z,9.30
2022-09-03T16:14:34.402Z,6.43
2022-09-03T16:17:27.560Z,6.83
2022-09-03T16:20:04.351Z,6.68
2022-09-03T16:22:50.067Z,7.22
2022-09-03T16:25:26.324Z,6.72
2022-09-03T16:28:11.449Z,6.22
2022-09-03T16:30:43.509Z,7.40
2022-09-03T16:33:21.680Z,6.45
2022-09-03T16:36:30.286Z,7.15
2022-09-03T16:39:31.615Z,6.25
2022-09-03T16:42:25.067Z,5.70
2022-09-03T16:45:02.595Z,5.90
2022-09-03T16:47:40.132Z,6.68
2022-09-03T16:50:27.285Z,5.18
2022-09-03T16:53:18.976Z,7.30
2022-09-03T16:56:19.414Z,6.18
2022-09-03T16:59:14.901Z,4.82
2022-09-03T17:01:57.954Z,5.72
2022-09-03T17:04:34.847Z,6.85
2022-09-03T17:07:41.047Z,4.85
2022-09-03T17:10:27.562Z,6.03
2022-09-03T17:13:16.731Z,5.45
2022-09-03T17:16:06.767Z,5.07
2022-09-03T17:18:40.224Z,4.65
2022-09-03T17:21:19.732Z,4.70
2022-09-03T17:24:02.320Z,6.93
2022-09-03T17:26:35.766Z,4.93
2022-09-03T17:29:25.428Z,6.65
2022-09-03T17:32:23.770Z,6.85
2022-09-03T17:35:24.690Z,11.10
2022-09-03T17:38:17.867Z,7.05
2022-09-03T17:41:18.142Z,5.47
2022-09-03T17:44:27.171Z,7.97
2022-09-03T17:47:22.358Z,8.75
2022-09-03T17:50:00.823Z,7.60
2022-09-03T17:52:52.621Z,11.10
2022-09-03T17:55:40.347Z,11.88
2022-09-03T17:58:18.113Z,14.82
2022-09-03T18:01:18.414Z,15.23
2022-09-03T18:04:17.558Z,16.73
2022-09-03T18:06:54.577Z,17.35
2022-09-03T18:09:43.777Z,16.80
2022-09-03T18:12:41.650Z,19.20
2022-09-03T18:15:16.640Z,19.55
2022-09-03T18:18:02.466Z,17.92
2022-09-03T18:21:22.225Z,17.85
2022-09-03T18:24:16.228Z,21.58
2022-09-03T18:27:19.675Z,18.45
2022-09-03T18:30:24.937Z,16.50
2022-09-03T18:33:13.931Z,20.60
2022-09-03T18:36:05.766Z,16.55
2022-09-03T18:38:56.944Z,16.23
2022-09-03T18:42:20.019Z,16.33
2022-09-03T18:45:23.575Z,22.45
2022-09-03T18:48:42.986Z,17.52
2022-09-03T18:51:52.495Z,16.42
2022-09-03T18:55:07.496Z,18.95
2022-09-03T18:58:28.980Z,17.63
2022-09-03T19:01:42.863Z,16.17
2022-09-03T19:05:05.407Z,14.77
2022-09-03T19:08:13.312Z,18.42
2022-09-03T19:11:37.663Z,17.38
2022-09-03T19:14:50.529Z,15.57
2022-09-03T19:17:57.815Z,17.35
2022-09-03T19:20:57.758Z,15.13
2022-09-03T19:23:46.924Z,22.00
2022-09-03T19:27:37.482Z,17.52
2022-09-03T19:30:31.491Z,17.17
2022-09-03T19:33:36.936Z,15.88
2022-09-03T19:36:38.121Z,17.95
2022-09-03T19:39:38.721Z,15.35
2022-09-03T19:43:01.443Z,14.55
2022-09-03T19:46:04.848Z,17.02
2022-09-03T19:49:14.581Z,16.48
2022-09-03T19:52:14.885Z,14.05
2022-09-03T19:55:03.927Z,18.50
2022-09-03T19:57:53.238Z,15.80
2022-09-03T20:00:45.049Z,19.20
2022-09-03T20:03:35.567Z,20.73
2022-09-03T20:06:29.138Z,17.15
2022-09-03T20:09:26.897Z,15.95
2022-09-03T20:12:07.242Z,20.63
2022-09-03T20:14:41.024Z,17.15
2022-09-03T20:17:16.529Z,22.10
2022-09-03T20:19:56.275Z,16.65
2022-09-03T20:22:47.321Z,16.83
2022-09-03T20:25:18.044Z,16.08
2022-09-03T20:28:28.867Z,18.08
2022-09-03T20:31:10.446Z,20.30
2022-09-03T20:34:05.671Z,15.05
2022-09-03T20:37:27.177Z,15.77
2022-09-03T20:40:13.815Z,18.48
2022-09-03T20:43:07.346Z,18.70
2022-09-03T20:46:00.256Z,17.33
2022-09-03T20:49:03.866Z,19.33
2022-09-03T20:51:55.846Z,18.92
2022-09-03T20:54:54.470Z,16.92
2022-09-03T20:57:37.050Z,13.40
2022-09-03T21:00:15.270Z,16.20
2022-09-03T21:03:04.337Z,16.70
2022-09-03T21:05:34.917Z,16.73
2022-09-03T21:08:14.422Z,8.93
2022-09-03T21:10:51.253Z,9.27
2022-09-03T21:13:38.837Z,6.78
2022-09-03T21:16:37.388Z,6.47
2022-09-03T21:19:19.954Z,5.15
2022-09-03T21:22:07.085Z,5.60
2022-09-03T21:24:43.045Z,5.20
2022-09-03T21:27:20.878Z,7.57
2022-09-03T21:30:03.833Z,4.90
2022-09-03T21:32:43.969Z,3.78
2022-09-03T21:35:35.937Z,3.33
2022-09-03T21:38:15.482Z,3.92
2022-09-03T21:40:57.942Z,3.30
2022-09-03T21:43:49.449Z,3.58
2022-09-03T21:46:28.500Z,3.33
2022-09-03T21:49:02.850Z,2.67
2022-09-03T21:51:55.920Z,2.90
2022-09-03T23:27:20.593Z,7.03
2022-09-03T23:29:57.859Z,4.15
2022-09-03T23:32:33.234Z,4.50
2022-09-03T23:35:13.583Z,4.40
2022-09-03T23:37:57.051Z,3.78
2022-09-03T23:40:34.870Z,5.40
2022-09-03T23:43:12.554Z,4.90
2022-09-03T23:45:50.856Z,4.78
2022-09-03T23:48:39.361Z,4.00
2022-09-03T23:51:47.571Z,4.65
2022-09-03T23:54:40.913Z,5.03
2022-09-03T23:57:33.304Z,5.15
